Time;durP1;ratioP1;P1;durP2;ratioP2;P2;SDS_P1;SDS_P2;PMS_P1;PMS_P2;Temp;Humidity;BMP_temperature;BMP_pressure;BME280_temperature;BME280_humidity;BME280_pressure;Samples;Min_cycle;Max_cycle;Signal;HPM_P1;HPM_P2
2023/11/15 00:00:29;;;;;;;;;;;22.90;49.60;;;;;;5117447;28;19923;-56
2023/11/15 00:02:56;;;;;;;;;;;22.90;49.60;;;;;;5117032;28;20038;-57
2023/11/15 00:05:23;;;;;;;;;;;22.90;49.50;;;;;;5099226;28;19981;-56
2023/11/15 00:07:52;;;;;;;;;;;22.90;49.60;;;;;;5116864;28;20441;-57
2023/11/15 00:10:19;;;;;;;;;;;22.90;50.10;;;;;;5116696;28;19974;-57
2023/11/15 00:12:46;;;;;;;;;;;22.90;49.50;;;;;;5116954;28;19928;-56
2023/11/15 00:15:14;;;;;;;;;;;22.90;49.50;;;;;;5116790;28;19981;-56
2023/11/15 00:17:41;;;;;;;;;;;22.90;50.00;;;;;;5117114;28;19924;-56
2023/11/15 00:20:12;;;;;;;;;;;22.90;49.50;;;;;;5116478;28;19971;-55
2023/11/15 00:22:39;;;;;;;;;;;22.90;49.50;;;;;;5117013;28;19969;-57
2023/11/15 00:25:07;;;;;;;;;;;22.90;49.50;;;;;;5116701;28;19985;-57
2023/11/15 00:27:34;;;;;;;;;;;22.90;49.50;;;;;;5117026;28;19924;-55
2023/11/15 00:30:02;;;;;;;;;;;22.90;49.50;;;;;;5116908;28;20042;-58
2023/11/15 00:32:29;;;;;;;;;;;22.80;49.50;;;;;;5116803;28;20018;-56
2023/11/15 00:34:56;;;;;;;;;;;22.80;49.50;;;;;;5116480;28;20393;-56
2023/11/15 00:37:23;;;;;;;;;;;22.80;50.00;;;;;;5116832;28;20023;-57
2023/11/15 00:39:50;;;;;;;;;;;22.80;50.00;;;;;;5116500;28;19924;-56
2023/11/15 00:42:17;;;;;;;;;;;22.80;49.50;;;;;;5116503;28;19928;-56
2023/11/15 00:44:45;;;;;;;;;;;22.80;49.40;;;;;;5115998;28;20371;-56
2023/11/15 00:47:12;;;;;;;;;;;22.80;49.40;;;;;;5116249;28;19928;-56
2023/11/15 00:49:40;;;;;;;;;;;22.80;49.40;;;;;;5116426;28;20368;-57
2023/11/15 00:52:08;;;;;;;;;;;22.80;49.50;;;;;;5116155;28;19970;-57
2023/11/15 00:54:35;;;;;;;;;;;22.80;49.50;;;;;;5116277;28;19935;-56
2023/11/15 00:57:02;;;;;;;;;;;22.80;49.50;;;;;;5116119;28;20010;-58
2023/11/15 00:59:36;;;;;;;;;;;22.90;49.60;;;;;;5115947;28;20026;-58
2023/11/15 01:02:05;;;;;;;;;;;22.90;50.10;;;;;;5116187;28;19974;-58
2023/11/15 01:04:32;;;;;;;;;;;22.80;49.60;;;;;;5115861;28;19928;-57
2023/11/15 01:07:00;;;;;;;;;;;22.80;49.60;;;;;;5116098;28;19931;-57
2023/11/15 01:09:27;;;;;;;;;;;22.80;49.60;;;;;;5114589;28;19924;-61
2023/11/15 01:11:55;;;;;;;;;;;22.80;49.60;;;;;;5116136;28;19959;-64
2023/11/15 01:14:22;;;;;;;;;;;22.80;49.70;;;;;;5115863;28;19928;-58
2023/11/15 01:16:49;;;;;;;;;;;22.80;49.70;;;;;;5115649;28;19931;-59
2023/11/15 01:19:16;;;;;;;;;;;22.80;49.60;;;;;;5115474;28;20014;-54
2023/11/15 01:21:43;;;;;;;;;;;22.80;49.60;;;;;;5115120;28;19959;-58
2023/11/15 01:24:10;;;;;;;;;;;22.80;49.60;;;;;;5115451;28;20027;-56
2023/11/15 01:26:37;;;;;;;;;;;22.80;49.60;;;;;;5115706;28;19963;-57
2023/11/15 01:29:04;;;;;;;;;;;22.80;49.50;;;;;;5115713;28;19924;-57
2023/11/15 01:31:31;;;;;;;;;;;22.80;49.50;;;;;;5115554;28;19924;-57
2023/11/15 01:33:58;;;;;;;;;;;22.80;49.50;;;;;;5115186;28;19924;-56
2023/11/15 01:36:25;;;;;;;;;;;22.80;49.50;;;;;;5115400;28;19924;-57
2023/11/15 01:38:52;;;;;;;;;;;22.90;49.60;;;;;;5097428;28;20026;-57
2023/11/15 01:41:19;;;;;;;;;;;22.80;49.50;;;;;;5097056;28;19924;-57
2023/11/15 01:43:46;;;;;;;;;;;22.80;49.50;;;;;;5115176;28;19966;-57
2023/11/15 01:46:14;;;;;;;;;;;22.80;49.50;;;;;;5115323;28;20277;-57
2023/11/15 01:48:42;;;;;;;;;;;22.80;49.50;;;;;;5115218;28;19923;-58
2023/11/15 01:51:10;;;;;;;;;;;22.80;49.50;;;;;;5114667;28;20027;-54
2023/11/15 01:53:38;;;;;;;;;;;22.80;49.50;;;;;;5115001;28;19963;-56
2023/11/15 01:56:06;;;;;;;;;;;22.80;49.50;;;;;;5115104;28;20389;-57
2023/11/15 01:58:33;;;;;;;;;;;22.80;49.50;;;;;;5115070;28;19931;-57
2023/11/15 02:01:02;;;;;;;;;;;22.80;49.50;;;;;;5114979;28;20346;-57
2023/11/15 02:03:29;;;;;;;;;;;22.80;49.50;;;;;;5114787;28;19971;-55
2023/11/15 02:05:56;;;;;;;;;;;22.80;49.50;;;;;;5114439;28;19977;-58
2023/11/15 02:08:23;;;;;;;;;;;22.80;49.50;;;;;;5114609;28;19931;-54
2023/11/15 02:10:50;;;;;;;;;;;22.80;49.50;;;;;;5114495;28;19924;-58
2023/11/15 02:13:25;;;;;;;;;;;22.80;49.50;;;;;;5114439;28;19971;-57
2023/11/15 02:15:52;;;;;;;;;;;22.80;49.50;;;;;;5114440;28;19967;-59
2023/11/15 02:18:21;;;;;;;;;;;22.80;49.50;;;;;;5114476;28;19975;-57
2023/11/15 02:20:49;;;;;;;;;;;22.80;49.50;;;;;;5114087;28;20006;-57
2023/11/15 02:23:20;;;;;;;;;;;22.80;49.50;;;;;;5114640;28;19931;-57
2023/11/15 02:25:50;;;;;;;;;;;22.70;49.50;;;;;;5096088;28;20366;-57
2023/11/15 02:28:17;;;;;;;;;;;22.70;49.50;;;;;;5114650;28;20330;-57
2023/11/15 02:30:44;;;;;;;;;;;22.70;49.50;;;;;;5114536;28;20022;-56
2023/11/15 02:33:12;;;;;;;;;;;22.70;49.60;;;;;;5114461;28;19923;-58
2023/11/15 02:35:39;;;;;;;;;;;22.70;49.60;;;;;;5096395;28;19924;-56
2023/11/15 02:38:06;;;;;;;;;;;22.70;49.60;;;;;;5114545;28;19946;-57
2023/11/15 02:40:33;;;;;;;;;;;22.70;49.70;;;;;;5096105;28;19932;-57
2023/11/15 02:43:05;;;;;;;;;;;22.70;49.70;;;;;;5113969;28;20368;-57
2023/11/15 02:45:33;;;;;;;;;;;22.70;49.70;;;;;;5113986;28;19928;-57
2023/11/15 02:48:00;;;;;;;;;;;22.70;49.70;;;;;;5114315;28;19924;-58
2023/11/15 02:50:29;;;;;;;;;;;22.70;49.60;;;;;;5114347;28;19969;-58
2023/11/15 02:52:56;;;;;;;;;;;22.70;49.60;;;;;;5113999;28;19923;-56
2023/11/15 02:55:23;;;;;;;;;;;22.70;49.60;;;;;;5113783;28;20380;-56
2023/11/15 02:57:50;;;;;;;;;;;22.70;49.60;;;;;;5096309;28;20364;-58
2023/11/15 03:00:17;;;;;;;;;;;22.70;49.60;;;;;;5114193;28;20019;-57
2023/11/15 03:02:44;;;;;;;;;;;22.70;49.60;;;;;;5113825;28;20015;-58
2023/11/15 03:05:11;;;;;;;;;;;22.70;49.60;;;;;;5113696;28;20394;-58
2023/11/15 03:07:38;;;;;;;;;;;22.70;49.60;;;;;;5113731;28;20023;-56
2023/11/15 03:10:08;;;;;;;;;;;22.70;49.60;;;;;;5113944;28;20016;-56
2023/11/15 03:12:35;;;;;;;;;;;22.70;49.60;;;;;;5114136;28;19963;-58
2023/11/15 03:15:03;;;;;;;;;;;22.70;49.60;;;;;;5113861;28;19981;-57
2023/11/15 03:17:31;;;;;;;;;;;22.70;49.60;;;;;;5113935;28;20010;-57
2023/11/15 03:19:59;;;;;;;;;;;22.70;49.60;;;;;;5113160;28;20314;-57
2023/11/15 03:22:26;;;;;;;;;;;22.60;49.60;;;;;;5113776;28;19923;-57
2023/11/15 03:24:53;;;;;;;;;;;22.70;49.60;;;;;;5113303;28;19971;-57
2023/11/15 03:27:20;;;;;;;;;;;22.70;49.60;;;;;;5112871;28;19923;-57
2023/11/15 03:29:49;;;;;;;;;;;22.70;49.60;;;;;;5112927;28;20267;-57
2023/11/15 03:32:17;;;;;;;;;;;22.70;49.60;;;;;;5113999;28;19931;-58
2023/11/15 03:34:44;;;;;;;;;;;22.70;49.70;;;;;;5117506;28;19924;-58
2023/11/15 03:37:11;;;;;;;;;;;22.60;49.60;;;;;;5099542;28;19967;-58
2023/11/15 03:39:38;;;;;;;;;;;22.70;49.70;;;;;;5117479;28;19938;-57
2023/11/15 03:42:05;;;;;;;;;;;22.60;49.60;;;;;;5116875;28;19931;-57
2023/11/15 03:44:32;;;;;;;;;;;22.60;49.60;;;;;;5117311;28;19931;-55
2023/11/15 03:46:59;;;;;;;;;;;22.60;49.60;;;;;;5117458;28;19923;-57
2023/11/15 03:49:27;;;;;;;;;;;22.60;49.70;;;;;;5117387;28;20369;-56
2023/11/15 03:51:54;;;;;;;;;;;22.60;49.70;;;;;;5099186;28;19923;-57
2023/11/15 03:54:21;;;;;;;;;;;22.60;49.70;;;;;;5117296;28;20391;-54
2023/11/15 03:56:48;;;;;;;;;;;22.60;49.70;;;;;;5117594;28;20269;-56
2023/11/15 03:59:15;;;;;;;;;;;22.60;49.80;;;;;;5117252;28;19923;-56
2023/11/15 04:01:42;;;;;;;;;;;22.60;49.80;;;;;;5116890;28;19977;-55
2023/11/15 04:04:12;;;;;;;;;;;22.60;49.80;;;;;;5117373;28;19931;-58
2023/11/15 04:06:39;;;;;;;;;;;22.60;49.80;;;;;;5116875;28;19977;-56
2023/11/15 04:09:07;;;;;;;;;;;22.60;49.90;;;;;;5117328;28;20343;-56
2023/11/15 04:11:35;;;;;;;;;;;22.60;49.90;;;;;;5116332;28;20342;-55
2023/11/15 04:14:02;;;;;;;;;;;22.60;49.90;;;;;;5116582;28;19927;-57
2023/11/15 04:16:29;;;;;;;;;;;22.50;49.90;;;;;;5116778;28;20433;-57
2023/11/15 04:18:56;;;;;;;;;;;22.60;49.90;;;;;;5116851;28;20332;-56
2023/11/15 04:21:23;;;;;;;;;;;22.60;49.90;;;;;;5116149;28;20379;-56
2023/11/15 04:23:50;;;;;;;;;;;22.60;49.90;;;;;;5115954;28;19995;-56
2023/11/15 04:26:19;;;;;;;;;;;22.60;49.90;;;;;;5116495;28;19958;-57
2023/11/15 04:28:46;;;;;;;;;;;22.60;49.80;;;;;;5116943;28;19923;-55
2023/11/15 04:31:13;;;;;;;;;;;22.60;49.90;;;;;;5098499;28;20022;-57
2023/11/15 04:33:40;;;;;;;;;;;22.60;49.80;;;;;;5116869;28;20014;-57
2023/11/15 04:36:07;;;;;;;;;;;22.60;49.80;;;;;;5116322;28;19975;-57
2023/11/15 04:38:36;;;;;;;;;;;22.50;49.80;;;;;;5116273;28;20030;-57
2023/11/15 04:41:05;;;;;;;;;;;22.50;49.70;;;;;;5116726;28;19924;-56
2023/11/15 04:43:32;;;;;;;;;;;22.60;49.70;;;;;;5115277;28;19969;-58
2023/11/15 04:46:00;;;;;;;;;;;22.60;49.60;;;;;;5107567;28;20307;-57
2023/11/15 04:48:27;;;;;;;;;;;22.60;49.60;;;;;;5116603;28;19931;-56
2023/11/15 04:50:57;;;;;;;;;;;22.60;49.70;;;;;;5116346;28;19924;-57
2023/11/15 04:53:24;;;;;;;;;;;22.60;49.40;;;;;;5116125;28;20359;-55
2023/11/15 04:55:51;;;;;;;;;;;22.60;49.40;;;;;;5115937;28;20372;-56
2023/11/15 04:58:18;;;;;;;;;;;22.60;49.30;;;;;;5115894;28;19924;-59
2023/11/15 05:00:45;;;;;;;;;;;22.60;49.20;;;;;;5115983;28;20001;-56
2023/11/15 05:03:12;;;;;;;;;;;22.60;49.20;;;;;;5115434;28;19967;-57
2023/11/15 05:05:42;;;;;;;;;;;22.60;49.20;;;;;;5115365;28;19974;-56
2023/11/15 05:08:09;;;;;;;;;;;22.60;49.20;;;;;;5115622;28;19946;-56
2023/11/15 05:10:37;;;;;;;;;;;22.60;49.20;;;;;;5115805;28;19924;-56
2023/11/15 05:13:04;;;;;;;;;;;22.60;49.20;;;;;;5115653;28;20398;-57
2023/11/15 05:15:32;;;;;;;;;;;22.50;49.20;;;;;;5112238;28;19966;-56
2023/11/15 05:17:59;;;;;;;;;;;22.50;49.30;;;;;;5103826;28;19985;-56
2023/11/15 05:20:26;;;;;;;;;;;22.50;49.30;;;;;;5115228;28;19970;-58
2023/11/15 05:22:55;;;;;;;;;;;22.50;49.30;;;;;;5115245;28;20025;-58
2023/11/15 05:25:23;;;;;;;;;;;22.50;49.30;;;;;;5115384;28;19924;-57
2023/11/15 05:27:50;;;;;;;;;;;22.50;49.30;;;;;;5114818;28;19924;-58
2023/11/15 05:30:17;;;;;;;;;;;22.50;49.30;;;;;;5115059;28;19924;-57
2023/11/15 05:32:44;;;;;;;;;;;22.50;49.30;;;;;;5115253;28;19928;-58
2023/11/15 05:35:11;;;;;;;;;;;22.50;49.30;;;;;;5115210;28;19923;-55
2023/11/15 05:37:38;;;;;;;;;;;22.50;49.30;;;;;;5115099;28;19977;-58
2023/11/15 05:40:06;;;;;;;;;;;22.50;49.20;;;;;;5115230;28;19923;-57
2023/11/15 05:42:34;;;;;;;;;;;22.50;49.20;;;;;;5114817;28;19931;-58
2023/11/15 05:45:01;;;;;;;;;;;22.50;49.20;;;;;;5105980;27;20004;-57
2023/11/15 05:47:28;;;;;;;;;;;22.50;49.20;;;;;;5101955;28;19924;-58
2023/11/15 05:49:56;;;;;;;;;;;22.50;49.20;;;;;;5115158;28;20036;-58
2023/11/15 05:52:22;;;;;;;;;;;22.50;49.20;;;;;;5115149;28;19992;-58
2023/11/15 05:54:49;;;;;;;;;;;22.50;49.10;;;;;;5114464;28;19924;-56
2023/11/15 05:57:17;;;;;;;;;;;22.50;49.00;;;;;;5114778;28;19970;-56
2023/11/15 05:59:53;;;;;;;;;;;22.50;49.00;;;;;;5115065;28;19927;-57
2023/11/15 06:02:20;;;;;;;;;;;22.50;49.30;;;;;;5111821;28;20465;-58
2023/11/15 06:04:47;;;;;;;;;;;22.50;49.00;;;;;;5113470;28;19931;-59
2023/11/15 06:07:16;;;;;;;;;;;22.50;48.90;;;;;;5111668;28;19955;-59
2023/11/15 06:09:43;;;;;;;;;;;22.50;48.90;;;;;;5114563;27;20473;-59
2023/11/15 06:12:11;;;;;;;;;;;22.50;48.80;;;;;;5111001;27;19924;-59
2023/11/15 06:14:38;;;;;;;;;;;22.50;48.80;;;;;;5105388;27;19923;-63
2023/11/15 06:17:07;;;;;;;;;;;22.50;48.80;;;;;;5108983;28;19977;-58
2023/11/15 06:19:34;;;;;;;;;;;22.50;48.80;;;;;;5106318;28;19930;-59
2023/11/15 06:22:01;;;;;;;;;;;22.50;48.80;;;;;;5108693;27;19989;-58
2023/11/15 06:24:29;;;;;;;;;;;22.50;48.90;;;;;;5106925;27;20003;-59
2023/11/15 06:26:56;;;;;;;;;;;22.50;49.00;;;;;;5107402;27;20452;-59
2023/11/15 06:29:23;;;;;;;;;;;22.50;49.00;;;;;;5075400;28;19924;-59
2023/11/15 06:31:50;;;;;;;;;;;22.60;49.10;;;;;;5105720;27;19971;-59
2023/11/15 06:34:17;;;;;;;;;;;22.60;49.10;;;;;;5097515;28;19947;-59
2023/11/15 06:36:44;;;;;;;;;;;22.60;49.10;;;;;;5093005;27;20485;-60
2023/11/15 06:39:12;;;;;;;;;;;22.60;49.20;;;;;;5104127;27;20360;-57
2023/11/15 06:41:39;;;;;;;;;;;22.60;49.10;;;;;;5107462;27;20383;-59
2023/11/15 06:44:09;;;;;;;;;;;22.70;49.20;;;;;;5099540;28;19924;-59
2023/11/15 06:46:38;;;;;;;;;;;22.70;49.10;;;;;;5087222;28;20002;-59
2023/11/15 06:49:06;;;;;;;;;;;22.70;49.00;;;;;;5104789;27;19936;-60
2023/11/15 06:51:33;;;;;;;;;;;22.70;49.00;;;;;;5104792;27;19924;-59
2023/11/15 06:54:01;;;;;;;;;;;22.70;49.30;;;;;;5108218;28;19927;-59
2023/11/15 06:56:28;;;;;;;;;;;22.70;49.60;;;;;;5110607;28;20214;-59
2023/11/15 06:58:56;;;;;;;;;;;22.80;49.60;;;;;;5104810;28;19924;-59
2023/11/15 07:01:23;;;;;;;;;;;22.80;49.60;;;;;;5101893;28;19973;-57
2023/11/15 07:03:52;;;;;;;;;;;22.80;49.60;;;;;;5104284;28;19923;-59
2023/11/15 07:06:20;;;;;;;;;;;22.80;49.60;;;;;;5096484;28;19924;-59
2023/11/15 07:08:47;;;;;;;;;;;22.90;49.60;;;;;;5097254;27;19923;-58
2023/11/15 07:11:14;;;;;;;;;;;23.00;49.50;;;;;;5105215;27;19940;-59
2023/11/15 07:13:42;;;;;;;;;;;23.00;49.30;;;;;;5098320;27;19931;-57
2023/11/15 07:16:10;;;;;;;;;;;23.00;49.30;;;;;;5106228;27;19931;-60
2023/11/15 07:18:38;;;;;;;;;;;23.10;49.40;;;;;;5107530;27;19935;-59
2023/11/15 07:21:07;;;;;;;;;;;23.10;49.60;;;;;;5094912;27;19925;-59
2023/11/15 07:23:36;;;;;;;;;;;23.20;49.80;;;;;;5104861;28;19932;-59
2023/11/15 07:26:04;;;;;;;;;;;23.20;49.80;;;;;;5089831;28;20532;-60
2023/11/15 07:28:31;;;;;;;;;;;23.20;49.80;;;;;;5105766;27;19928;-60
2023/11/15 07:30:59;;;;;;;;;;;23.30;50.00;;;;;;5085551;27;20025;-60
2023/11/15 07:33:26;;;;;;;;;;;23.30;50.00;;;;;;5095465;27;19932;-60
2023/11/15 07:35:56;;;;;;;;;;;23.30;49.90;;;;;;5100933;27;19928;-61
2023/11/15 07:38:24;;;;;;;;;;;23.40;49.70;;;;;;5102789;27;20007;-59
2023/11/15 07:40:51;;;;;;;;;;;23.40;49.50;;;;;;5109485;27;20011;-57
2023/11/15 07:43:18;;;;;;;;;;;23.50;49.60;;;;;;5104246;27;19975;-57
2023/11/15 07:45:51;;;;;;;;;;;23.50;49.50;;;;;;5093368;28;19962;-59
2023/11/15 07:48:19;;;;;;;;;;;23.50;49.20;;;;;;5108380;27;19981;-58
2023/11/15 07:50:46;;;;;;;;;;;23.50;49.10;;;;;;5107294;27;20629;-61
2023/11/15 07:53:13;;;;;;;;;;;23.50;49.10;;;;;;5105251;27;19932;-59
2023/11/15 07:55:40;;;;;;;;;;;23.50;49.00;;;;;;5106236;27;19987;-59
2023/11/15 07:58:08;;;;;;;;;;;23.60;48.90;;;;;;5093954;27;20015;-60
2023/11/15 08:00:36;;;;;;;;;;;23.60;48.80;;;;;;5106841;27;19932;-57
2023/11/15 08:03:04;;;;;;;;;;;23.60;48.70;;;;;;5087293;28;20108;-59
2023/11/15 08:05:31;;;;;;;;;;;23.60;48.70;;;;;;5109256;27;19977;-58
2023/11/15 08:07:59;;;;;;;;;;;23.60;48.60;;;;;;5095978;27;19931;-60
2023/11/15 08:10:27;;;;;;;;;;;23.60;48.50;;;;;;5102509;27;20457;-59
2023/11/15 08:12:55;;;;;;;;;;;23.70;48.60;;;;;;5103596;27;19947;-59
2023/11/15 08:15:22;;;;;;;;;;;23.70;48.50;;;;;;5102237;27;20269;-59
2023/11/15 08:17:49;;;;;;;;;;;23.70;48.40;;;;;;5107220;27;20015;-59
2023/11/15 08:20:20;;;;;;;;;;;23.70;48.40;;;;;;5104764;27;19931;-59
2023/11/15 08:22:47;;;;;;;;;;;23.70;48.30;;;;;;5105907;27;20429;-58
2023/11/15 08:25:15;;;;;;;;;;;23.70;48.30;;;;;;5101294;27;19932;-61
2023/11/15 08:27:42;;;;;;;;;;;23.70;48.40;;;;;;5107787;27;20568;-58
2023/11/15 08:30:17;;;;;;;;;;;23.80;48.40;;;;;;5107891;27;20306;-60
2023/11/15 08:32:45;;;;;;;;;;;23.80;48.50;;;;;;5103714;27;20287;-60
2023/11/15 08:35:15;;;;;;;;;;;23.80;48.50;;;;;;5099352;27;19930;-59
2023/11/15 08:37:42;;;;;;;;;;;23.90;48.40;;;;;;5105476;27;19931;-59
2023/11/15 08:40:11;;;;;;;;;;;23.90;48.30;;;;;;5106043;27;20047;-60
2023/11/15 08:42:55;;;;;;;;;;;23.90;48.30;;;;;;5107005;27;19930;-59
2023/11/15 08:45:23;;;;;;;;;;;23.90;48.20;;;;;;5101890;27;19942;-62
2023/11/15 08:47:51;;;;;;;;;;;23.90;48.20;;;;;;5098689;27;20015;-58
2023/11/15 08:50:21;;;;;;;;;;;23.90;48.30;;;;;;5098788;27;19923;-59
2023/11/15 08:52:49;;;;;;;;;;;23.90;48.40;;;;;;5089866;28;19928;-59
2023/11/15 08:55:16;;;;;;;;;;;23.90;48.30;;;;;;5106346;27;19998;-60
2023/11/15 08:57:43;;;;;;;;;;;23.90;48.20;;;;;;5103110;27;20019;-58
2023/11/15 09:00:15;;;;;;;;;;;24.00;48.10;;;;;;5107910;28;20280;-59
2023/11/15 09:02:48;;;;;;;;;;;24.00;48.00;;;;;;5103065;28;20014;-59
2023/11/15 09:05:17;;;;;;;;;;;24.00;47.90;;;;;;5104051;28;20388;-59
2023/11/15 09:07:46;;;;;;;;;;;23.90;47.70;;;;;;5108713;27;19932;-60
2023/11/15 09:10:13;;;;;;;;;;;23.90;47.80;;;;;;5107400;28;19932;-58
2023/11/15 09:12:42;;;;;;;;;;;24.00;47.80;;;;;;5106273;27;19931;-59
2023/11/15 09:15:12;;;;;;;;;;;24.00;47.80;;;;;;5103973;28;19932;-60
2023/11/15 09:17:46;;;;;;;;;;;24.00;47.80;;;;;;5107783;28;19924;-59
2023/11/15 09:20:19;;;;;;;;;;;24.00;47.90;;;;;;5108200;27;19932;-59
2023/11/15 09:22:49;;;;;;;;;;;24.00;47.90;;;;;;5089082;27;19924;-59
2023/11/15 09:25:21;;;;;;;;;;;24.00;48.00;;;;;;5103892;27;20310;-59
2023/11/15 09:27:50;;;;;;;;;;;24.00;48.00;;;;;;5108291;27;19986;-59
2023/11/15 09:30:21;;;;;;;;;;;24.00;48.10;;;;;;5108660;27;19976;-60
2023/11/15 09:32:49;;;;;;;;;;;24.00;48.10;;;;;;5086436;28;19932;-60
2023/11/15 09:35:18;;;;;;;;;;;24.10;48.10;;;;;;5111632;27;19953;-60
2023/11/15 09:37:45;;;;;;;;;;;24.10;48.10;;;;;;5107219;27;19970;-59
2023/11/15 09:40:12;;;;;;;;;;;24.10;48.00;;;;;;5105455;27;19923;-60
2023/11/15 09:42:46;;;;;;;;;;;24.10;48.00;;;;;;5112933;27;19928;-62
2023/11/15 09:45:17;;;;;;;;;;;24.10;48.00;;;;;;5104801;27;19938;-59
2023/11/15 09:47:48;;;;;;;;;;;24.10;47.90;;;;;;5107929;27;20026;-58
2023/11/15 09:50:21;;;;;;;;;;;24.10;47.90;;;;;;5101694;27;19932;-61
2023/11/15 09:52:59;;;;;;;;;;;24.10;48.00;;;;;;5088308;27;19936;-61
2023/11/15 09:55:26;;;;;;;;;;;24.20;48.20;;;;;;5093527;27;19962;-59
2023/11/15 09:57:53;;;;;;;;;;;24.20;48.20;;;;;;5106581;27;20314;-63
2023/11/15 10:00:22;;;;;;;;;;;24.20;48.30;;;;;;5099215;27;20023;-58
2023/11/15 10:02:50;;;;;;;;;;;24.20;48.30;;;;;;5100316;27;19932;-56
2023/11/15 10:05:20;;;;;;;;;;;24.20;48.10;;;;;;5097185;27;20019;-56
2023/11/15 10:07:50;;;;;;;;;;;24.30;48.00;;;;;;5101013;27;19932;-57
2023/11/15 10:10:18;;;;;;;;;;;24.30;47.90;;;;;;5103330;27;20367;-59
2023/11/15 10:12:46;;;;;;;;;;;24.30;47.80;;;;;;5102719;27;20013;-59
2023/11/15 10:15:13;;;;;;;;;;;24.30;47.70;;;;;;5100735;27;20421;-61
2023/11/15 10:17:42;;;;;;;;;;;24.30;47.60;;;;;;5106220;27;19931;-60
2023/11/15 10:20:18;;;;;;;;;;;24.30;47.30;;;;;;5106483;28;19972;-59
2023/11/15 10:22:46;;;;;;;;;;;24.30;47.30;;;;;;5106576;27;20022;-63
2023/11/15 10:25:18;;;;;;;;;;;24.30;47.10;;;;;;5099437;27;19928;-63
2023/11/15 10:27:50;;;;;;;;;;;24.30;47.00;;;;;;5099984;27;20387;-62
2023/11/15 10:30:20;;;;;;;;;;;24.40;47.00;;;;;;5104059;28;19955;-61
2023/11/15 10:32:50;;;;;;;;;;;24.40;47.10;;;;;;5100432;27;20015;-60
2023/11/15 10:35:28;;;;;;;;;;;24.40;46.90;;;;;;5107353;27;19930;-63
2023/11/15 10:37:55;;;;;;;;;;;24.40;46.60;;;;;;5103610;27;19924;-64
2023/11/15 10:40:24;;;;;;;;;;;24.40;46.40;;;;;;5110679;27;19989;-65
2023/11/15 10:42:52;;;;;;;;;;;24.40;46.40;;;;;;5089820;28;20401;-61
2023/11/15 10:45:22;;;;;;;;;;;24.40;46.30;;;;;;5099689;27;19924;-60
2023/11/15 10:47:56;;;;;;;;;;;24.40;45.60;;;;;;5102660;28;19931;-61
2023/11/15 10:50:26;;;;;;;;;;;24.40;45.50;;;;;;5105546;27;19930;-61
2023/11/15 10:52:54;;;;;;;;;;;24.40;45.30;;;;;;5106986;28;19954;-63
2023/11/15 10:55:22;;;;;;;;;;;24.40;45.10;;;;;;5099693;27;19934;-65
2023/11/15 10:57:50;;;;;;;;;;;24.40;44.80;;;;;;5106951;28;19986;-59
2023/11/15 11:00:21;;;;;;;;;;;24.40;44.70;;;;;;5113143;28;19927;-60
2023/11/15 11:02:49;;;;;;;;;;;24.40;44.70;;;;;;5104977;28;19934;-60
2023/11/15 11:05:22;;;;;;;;;;;24.40;45.00;;;;;;5107603;28;19932;-59
2023/11/15 11:07:57;;;;;;;;;;;24.40;44.20;;;;;;5105309;28;19963;-59
2023/11/15 11:10:28;;;;;;;;;;;24.40;44.00;;;;;;5100707;28;19928;-59
2023/11/15 11:12:58;;;;;;;;;;;24.40;44.00;;;;;;5100203;28;20023;-58
2023/11/15 11:15:31;;;;;;;;;;;24.40;44.30;;;;;;5101936;28;19958;-59
2023/11/15 11:18:06;;;;;;;;;;;24.50;44.50;;;;;;5098747;28;19930;-59
2023/11/15 11:20:36;;;;;;;;;;;24.50;44.70;;;;;;5100165;28;19931;-58
2023/11/15 11:23:07;;;;;;;;;;;24.50;44.70;;;;;;5102942;28;19931;-59
2023/11/15 11:25:38;;;;;;;;;;;24.50;44.80;;;;;;5107221;28;19959;-59
2023/11/15 11:28:11;;;;;;;;;;;24.60;44.80;;;;;;5087632;28;19932;-59
2023/11/15 11:30:39;;;;;;;;;;;24.60;44.80;;;;;;5087105;28;20340;-60
2023/11/15 11:33:09;;;;;;;;;;;24.60;44.70;;;;;;5103249;28;20264;-60
2023/11/15 11:35:40;;;;;;;;;;;24.60;44.70;;;;;;5104628;28;19928;-60
2023/11/15 11:38:12;;;;;;;;;;;24.60;44.60;;;;;;5087972;28;20023;-56
2023/11/15 11:40:39;;;;;;;;;;;24.60;44.50;;;;;;5102165;28;19978;-59
2023/11/15 11:43:11;;;;;;;;;;;24.60;44.40;;;;;;5097683;28;19934;-59
2023/11/15 11:45:40;;;;;;;;;;;24.60;44.50;;;;;;5100841;28;20293;-58
2023/11/15 11:48:14;;;;;;;;;;;24.60;44.60;;;;;;5102091;28;19924;-58
2023/11/15 11:50:54;;;;;;;;;;;24.70;44.60;;;;;;5105204;28;20453;-58
2023/11/15 11:53:22;;;;;;;;;;;24.70;44.60;;;;;;5094549;27;19976;-59
2023/11/15 11:55:50;;;;;;;;;;;24.70;44.60;;;;;;5085743;28;19978;-61
2023/11/15 11:58:17;;;;;;;;;;;24.70;44.50;;;;;;5105666;27;20661;-59
2023/11/15 12:00:44;;;;;;;;;;;24.70;44.40;;;;;;5099015;27;20023;-58
2023/11/15 12:03:11;;;;;;;;;;;24.70;45.00;;;;;;5088943;28;19998;-58
2023/11/15 12:05:44;;;;;;;;;;;24.70;44.30;;;;;;5102306;27;20370;-59
2023/11/15 12:08:13;;;;;;;;;;;24.70;44.20;;;;;;5109777;27;20000;-59
2023/11/15 12:10:41;;;;;;;;;;;24.70;44.20;;;;;;5104765;27;20280;-59
2023/11/15 12:13:10;;;;;;;;;;;24.70;44.20;;;;;;5083911;28;19931;-59
2023/11/15 12:15:38;;;;;;;;;;;24.70;44.10;;;;;;5101636;27;19932;-59
2023/11/15 12:18:07;;;;;;;;;;;24.70;44.10;;;;;;5106909;27;19931;-59
2023/11/15 12:20:39;;;;;;;;;;;24.70;43.90;;;;;;5106055;27;20308;-58
2023/11/15 12:23:12;;;;;;;;;;;24.70;43.70;;;;;;5102908;27;20300;-59
2023/11/15 12:25:54;;;;;;;;;;;24.70;43.60;;;;;;5099817;27;20288;-57
2023/11/15 12:28:25;;;;;;;;;;;24.70;43.90;;;;;;5100864;27;20440;-58
2023/11/15 12:30:54;;;;;;;;;;;24.70;43.30;;;;;;5100499;27;19932;-58
2023/11/15 12:33:22;;;;;;;;;;;24.70;43.10;;;;;;5086516;28;19977;-58
2023/11/15 12:35:52;;;;;;;;;;;24.70;43.00;;;;;;5104693;27;20405;-59
2023/11/15 12:38:20;;;;;;;;;;;24.70;43.00;;;;;;5104237;27;20015;-55
2023/11/15 12:40:47;;;;;;;;;;;24.70;43.10;;;;;;5090605;28;19942;-60
2023/11/15 12:43:22;;;;;;;;;;;24.80;43.10;;;;;;5075857;27;19923;-59
2023/11/15 12:45:50;;;;;;;;;;;24.70;43.00;;;;;;5104992;28;19924;-59
2023/11/15 12:48:17;;;;;;;;;;;24.70;43.00;;;;;;5102583;27;19930;-60
2023/11/15 12:50:47;;;;;;;;;;;24.80;43.00;;;;;;5077814;27;20422;-60
2023/11/15 12:53:15;;;;;;;;;;;24.80;43.00;;;;;;5101285;27;19939;-60
2023/11/15 12:55:55;;;;;;;;;;;24.80;43.00;;;;;;5110211;27;19989;-59
2023/11/15 12:58:42;;;;;;;;;;;24.80;43.00;;;;;;5107746;27;19931;-60
2023/11/15 13:01:13;;;;;;;;;;;24.80;42.90;;;;;;5088641;28;19977;-59
2023/11/15 13:03:40;;;;;;;;;;;24.80;42.80;;;;;;5097437;28;20014;-60
2023/11/15 13:06:09;;;;;;;;;;;24.80;42.80;;;;;;5095150;28;19939;-60
2023/11/15 13:08:38;;;;;;;;;;;24.80;42.80;;;;;;5103300;27;20304;-60
2023/11/15 13:11:05;;;;;;;;;;;24.80;42.80;;;;;;5107500;27;19927;-60
2023/11/15 13:13:32;;;;;;;;;;;24.80;42.80;;;;;;5101711;27;19981;-59
2023/11/15 13:15:59;;;;;;;;;;;24.80;42.80;;;;;;5104007;27;19924;-60
2023/11/15 13:18:27;;;;;;;;;;;24.80;42.80;;;;;;5086720;27;19942;-59
2023/11/15 13:20:57;;;;;;;;;;;24.80;42.70;;;;;;5105531;27;20156;-59
2023/11/15 13:23:25;;;;;;;;;;;24.80;42.70;;;;;;5099731;27;19932;-60
2023/11/15 13:25:53;;;;;;;;;;;24.80;42.70;;;;;;5105225;27;19924;-60
2023/11/15 13:28:20;;;;;;;;;;;24.80;42.60;;;;;;5105548;27;19981;-60
2023/11/15 13:30:48;;;;;;;;;;;24.80;42.50;;;;;;5101981;27;19936;-60
2023/11/15 13:33:17;;;;;;;;;;;24.80;42.50;;;;;;5103554;27;19932;-60
2023/11/15 13:35:45;;;;;;;;;;;24.80;42.50;;;;;;5107950;27;19978;-60
2023/11/15 13:38:12;;;;;;;;;;;24.80;42.50;;;;;;5105497;27;20358;-59
2023/11/15 13:40:41;;;;;;;;;;;24.80;42.50;;;;;;5109944;27;19923;-58
2023/11/15 13:43:09;;;;;;;;;;;24.80;42.50;;;;;;5100748;27;19942;-58
2023/11/15 13:45:36;;;;;;;;;;;24.80;42.40;;;;;;5089937;28;19931;-57
2023/11/15 13:48:03;;;;;;;;;;;24.70;42.30;;;;;;5097733;27;20007;-57
2023/11/15 13:50:30;;;;;;;;;;;24.70;42.40;;;;;;5101451;27;19928;-56
2023/11/15 13:52:57;;;;;;;;;;;24.80;42.40;;;;;;5093677;27;19932;-59
2023/11/15 13:55:25;;;;;;;;;;;24.80;42.40;;;;;;5095524;27;20029;-59
2023/11/15 13:57:52;;;;;;;;;;;24.80;42.40;;;;;;5105680;27;19931;-60
2023/11/15 14:00:23;;;;;;;;;;;24.70;42.50;;;;;;5077791;28;19931;-60
2023/11/15 14:02:51;;;;;;;;;;;24.70;42.50;;;;;;5108801;27;19924;-59
2023/11/15 14:05:20;;;;;;;;;;;24.70;42.50;;;;;;5106116;27;19939;-59
2023/11/15 14:07:47;;;;;;;;;;;24.70;42.50;;;;;;5082205;27;19932;-58
2023/11/15 14:10:19;;;;;;;;;;;24.80;42.60;;;;;;5098421;27;19932;-59
2023/11/15 14:12:46;;;;;;;;;;;24.70;42.70;;;;;;5086753;28;19970;-59
2023/11/15 14:15:18;;;;;;;;;;;24.80;42.80;;;;;;5086536;28;20010;-60
2023/11/15 14:17:48;;;;;;;;;;;24.70;43.00;;;;;;5095669;28;20013;-58
2023/11/15 14:20:18;;;;;;;;;;;24.80;43.30;;;;;;5089196;28;20379;-58
2023/11/15 14:22:45;;;;;;;;;;;24.80;43.30;;;;;;5102032;27;20379;-58